RYR34W LEMH-LEBL
Flight info
| Callsign | RYR34W |
|---|---|
| Flight time | N/A |
| Altitude | 18000 |
| Route | LUNIK Q255 OSTUR |
| Aircraft | B738/M-SDE2E3FGHIRWXY/LB1 |
Departure
| Time | 2026-04-10 22:15 |
|---|---|
| Airport | Menorca Airport (LEMH) |
Arrival
| Time | N/A |
|---|---|
| Airport | Josep Tarradellas Barcelona-El Prat Airport (LEBL) |
| Time | Latitude | Longitude | Altitude | Speed | Heading |
|---|---|---|---|---|---|
| 2026-04-10 22:00 | 39.86422 | 4.22395 | 294 ft | 0 kts | 99° |
| 2026-04-10 22:06 | 39.86422 | 4.22397 | 294 ft | 0 kts | 106° |
| 2026-04-10 22:06 | 39.86402 | 4.22376 | 297 ft | 5 kts | 269° |
| 2026-04-10 22:06 | 39.86403 | 4.22374 | 297 ft | 0 kts | 275° |
| 2026-04-10 22:07 | 39.86405 | 4.22334 | 295 ft | 7 kts | 288° |
| 2026-04-10 22:07 | 39.86445 | 4.22314 | 294 ft | 7 kts | 5° |
| 2026-04-10 22:07 | 39.86451 | 4.22314 | 294 ft | 0 kts | 5° |
| 2026-04-10 22:10 | 39.86482 | 4.22321 | 294 ft | 10 kts | 8° |
| 2026-04-10 22:10 | 39.86541 | 4.22236 | 298 ft | 15 kts | 281° |
| 2026-04-10 22:10 | 39.86621 | 4.22178 | 294 ft | 14 kts | 7° |
| 2026-04-10 22:10 | 39.86715 | 4.22198 | 294 ft | 13 kts | 8° |
| 2026-04-10 22:11 | 39.86888 | 4.22233 | 295 ft | 35 kts | 8° |
| 2026-04-10 22:11 | 39.87069 | 4.22269 | 306 ft | 24 kts | 8° |
| 2026-04-10 22:11 | 39.87226 | 4.22303 | 309 ft | 23 kts | 8° |
| 2026-04-10 22:11 | 39.87329 | 4.22323 | 309 ft | 22 kts | 8° |
| 2026-04-10 22:12 | 39.87391 | 4.22266 | 309 ft | 0 kts | 280° |
| 2026-04-10 22:12 | 39.87391 | 4.22265 | 309 ft | 0 kts | 278° |
| 2026-04-10 22:13 | 39.87391 | 4.22210 | 310 ft | 16 kts | 266° |
| 2026-04-10 22:13 | 39.87279 | 4.22075 | 311 ft | 22 kts | 191° |
| 2026-04-10 22:13 | 39.87214 | 4.22062 | 311 ft | 0 kts | 188° |
| 2026-04-10 22:15 | 39.86888 | 4.21996 | 309 ft | 95 kts | 189° |
| 2026-04-10 22:15 | 39.85974 | 4.21804 | 354 ft | 167 kts | 190° |
| 2026-04-10 22:15 | 39.84732 | 4.21500 | 1100 ft | 192 kts | 190° |
| 2026-04-10 22:15 | 39.83394 | 4.21176 | 2055 ft | 202 kts | 191° |
| 2026-04-10 22:16 | 39.82053 | 4.20562 | 2623 ft | 219 kts | 218° |
| 2026-04-10 22:16 | 39.81189 | 4.18780 | 2854 ft | 252 kts | 258° |
| 2026-04-10 22:16 | 39.81434 | 4.16478 | 3329 ft | 273 kts | 296° |
| 2026-04-10 22:16 | 39.82706 | 4.14642 | 4215 ft | 276 kts | 321° |
| 2026-04-10 22:17 | 39.84293 | 4.13239 | 5199 ft | 277 kts | 329° |
| 2026-04-10 22:17 | 39.85912 | 4.11870 | 6133 ft | 278 kts | 320° |
| 2026-04-10 22:17 | 39.87298 | 4.10136 | 7084 ft | 277 kts | 314° |
| 2026-04-10 22:17 | 39.88641 | 4.08333 | 7967 ft | 278 kts | 314° |
| 2026-04-10 22:18 | 39.89992 | 4.06524 | 8876 ft | 279 kts | 314° |
| 2026-04-10 22:18 | 39.91357 | 4.04707 | 9764 ft | 281 kts | 314° |
| 2026-04-10 22:18 | 39.92730 | 4.02885 | 10595 ft | 283 kts | 313° |
| 2026-04-10 22:18 | 39.94124 | 4.01055 | 11375 ft | 286 kts | 313° |
| 2026-04-10 22:19 | 39.95533 | 3.99208 | 12147 ft | 290 kts | 313° |
| 2026-04-10 22:19 | 39.96959 | 3.97335 | 12945 ft | 293 kts | 313° |
| 2026-04-10 22:19 | 39.98404 | 3.95435 | 13722 ft | 296 kts | 313° |
| 2026-04-10 22:19 | 39.99861 | 3.93522 | 14412 ft | 301 kts | 313° |
| 2026-04-10 22:20 | 40.01344 | 3.91574 | 15057 ft | 306 kts | 313° |
| 2026-04-10 22:20 | 40.02859 | 3.89587 | 15717 ft | 311 kts | 313° |
| 2026-04-10 22:20 | 40.04396 | 3.87570 | 16383 ft | 315 kts | 313° |
| 2026-04-10 22:20 | 40.05952 | 3.85528 | 17033 ft | 320 kts | 313° |
| 2026-04-10 22:21 | 40.07535 | 3.83450 | 17684 ft | 325 kts | 313° |
| 2026-04-10 22:21 | 40.09140 | 3.81343 | 18043 ft | 329 kts | 313° |
| 2026-04-10 22:21 | 40.10757 | 3.79219 | 18035 ft | 329 kts | 313° |
| 2026-04-10 22:21 | 40.12376 | 3.77092 | 18048 ft | 331 kts | 313° |
| 2026-04-10 22:22 | 40.13997 | 3.74962 | 18052 ft | 331 kts | 313° |
| 2026-04-10 22:22 | 40.15624 | 3.72821 | 18050 ft | 331 kts | 313° |
| 2026-04-10 22:22 | 40.17278 | 3.70642 | 18060 ft | 347 kts | 313° |
| 2026-04-10 22:22 | 40.19020 | 3.68342 | 18064 ft | 366 kts | 313° |
| 2026-04-10 22:23 | 40.20852 | 3.65923 | 18066 ft | 383 kts | 313° |
| 2026-04-10 22:23 | 40.22771 | 3.63387 | 18066 ft | 399 kts | 313° |
| 2026-04-10 22:23 | 40.24757 | 3.60762 | 18068 ft | 412 kts | 313° |
| 2026-04-10 22:23 | 40.26774 | 3.58094 | 18061 ft | 423 kts | 313° |
| 2026-04-10 22:24 | 40.28896 | 3.55286 | 18056 ft | 433 kts | 313° |
| 2026-04-10 22:24 | 40.31019 | 3.52476 | 18039 ft | 433 kts | 313° |
| 2026-04-10 22:24 | 40.33026 | 3.49817 | 18026 ft | 429 kts | 313° |
| 2026-04-10 22:24 | 40.35138 | 3.47013 | 18152 ft | 439 kts | 310° |
| 2026-04-10 22:25 | 40.37293 | 3.44140 | 18071 ft | 455 kts | 312° |
| 2026-04-10 22:25 | 40.39551 | 3.41137 | 18037 ft | 469 kts | 312° |
| 2026-04-10 22:25 | 40.41873 | 3.38046 | 18006 ft | 479 kts | 312° |
| 2026-04-10 22:25 | 40.44213 | 3.34930 | 17997 ft | 484 kts | 310° |
| 2026-04-10 22:26 | 40.46611 | 3.31727 | 17989 ft | 498 kts | 309° |
| 2026-04-10 22:26 | 40.49063 | 3.28445 | 18002 ft | 510 kts | 309° |
| 2026-04-10 22:26 | 40.51581 | 3.25083 | 17993 ft | 523 kts | 307° |